Monday, August 29, 2016
08:57 UTC
  |  Log In   |  Register Free
Airport Search:

Hillsboro Municipal Airport
(KINJ)

Hillsboro Municipal Airport Diagram
No Airport Diagram Available

FAA data valid effective Jul 21 2016 - Sep 15 2016 (unless otherwise noted).

 
 
 
 
 
 
 
 
 
 
 
 
 
 
Current Aviation Weather for KINJ

Weather Summary


The most recent METAR observation for INJ was updated at: 12:55 UTC
METAR for INJ is not available. Closest METAR is for
METAR

METAR KINJ 290835Z 06007KT 10SM CLR 22/21 A3001 RMK AO2 T02150207

METAR KINJ 290815Z 06008KT 10SM CLR 22/21 A3001 RMK AO2 T02150207

METAR KINJ 290755Z 06008KT 10SM CLR 22/21 A3001 RMK AO2 T02150207

METAR KINJ 290735Z 06006KT 10SM CLR 22/21 A3001 RMK AO2 T02160208

METAR KINJ 290715Z 06004KT 10SM CLR 21/21 A3002 RMK AO2 T02130207

METAR KINJ 290655Z 00000KT 10SM CLR 21/21 A3003 RMK AO2 T02120205

METAR KINJ 290635Z 00000KT 10SM CLR 22/21 A3003 RMK AO2 T02180208

METAR KINJ 290615Z 00000KT 10SM CLR 22/21 A3003 RMK AO2 T02160208

METAR KINJ 290555Z 07004KT 10SM CLR 22/21 A3004 RMK AO2 60001 T02210211 10292 20220 403160200

METAR KACT 290851Z 00000KT 10SM CLR 22/22 A3000 RMK AO2 SLP151 T02220217 55009

METAR KCNW METAR not available

METAR KCPT 290835Z 05006KT 10SM CLR 22/22 A3003 RMK AO2

TAF for INJ is not available.
TAF

KACT - TAF KACT 290520Z 2906/3006 07005KT P6SM SCT070 BKN130

KACT - FM291200 05006KT 5SM BR BKN015

KACT - FM291800 04006KT P6SM VCSH SCT040 BKN130

KACT - FM300100 08006KT P6SM SCT050 BKN130 =

KGKY - TAF KGKY 290520Z 2906/3006 11006KT P6SM FEW050 SCT300

KGKY - FM290800 08006KT P6SM SCT300

KGKY - FM291400 05006KT P6SM FEW050 SCT300 =

GlobalAir.com is loading additional information.
 Current Weather at INJ
70.0 F° (21.2 C°)

North winds at 0.0 mph
Pressure:
30.03 in
Humidity:
96%
Wind:
North at 0.0 mph
Dew Point:
68.9 F° (20.5 C°)
Visibility:
10.00 mi
INJ NOAA Radar




Find All Airport Services Find A Hotel Find A Rental Car Find A Golf Course Find A Restaurant $100 Hamburger



Airport Weather Forecast for KINJ

Translated METAR for KINJ (0835 UTC)
METAR:
KINJ 290835Z AUTO Hillsboro Municipal, Hillsboro, TX (KINJ). Aug 29, 0835Z, Automated. Wind from 060° at 7 knots, 10 statute miles visibility, Clear Skies, Temperature 22°C, Dewpoint 21°C, Altimeter is 30.01. Remarks: automated station with precipitation discriminator hourly temp 21.5°C dewpoint 20.7°C
Conditions at:
KINJ (Hillsboro Muni, TX) observed 0835 UTC 29 August 2016
Temperature:
70.0 F° (21.2 C°)
Dewpoint:
not reported - refer to area weather report
Pressure:
30.03 Hg
Winds:
not reported
Visibility:
10.00
Ceiling:
at least 12,000 feet AGL
Clouds:
not reported - refer to area weather report
Remarks:
site is un-manned

Translated TAF for TAF for INJ is not available. Refer to local area forecast.
FBO's on the Field
FBO Company Facility Photos Services Transportation Aviation Fuel Prices: Prices include tax
Catering Weather Repair Courtesy Rental Type 100LL JetA JetA+ MOGAS 8087
 
Hillsboro Municipal Airport

This FBO has not yet been rated
FS:Avfuel
Last Updated: Aug-02
Login to update fuel prices
SS:
Contact Hillsboro Municipal AirportMore FBO Information
 
Add another FBO Facility Photos Catering Weather Repair Courtesy Rental Type 100LL JetA JetA+ MOGAS 8087
Services Transportation Aviation Fuel Prices: Prices include tax


model-print
model-print
model-print
model-print